Breeders Fall Classic - LOFT FLY INVENTORY

Station: INVENTORY - T Race

Distance: 10 Miles    

Release: 10-Aug-2019 07:38

Weather Release:    Arrival:

Wind at Release:     Wind at Arrival:

Temp at Release: °    Temp at Arrival: °

Lofts: 111

Birds: 463

Clocked: 457

Good Luck to Everyone!
Drops Pos Breeder Pigeon Name Color Sex Ent Arrival Speed To Win Eligible RedGriz
1 Tim Byers - OH 9116-AU19-BUCK BB H 1 08:54:01.30 231.513 00:00:00 Yes
2 Clear Springs Loft - FL 0073-AU19-WARD RC H 1 08:57:30.70 221.351 00:03:29 Yes
3 Era Loft - NY 0601-AU19-BUF BBSP H 1 09:21:49.30 169.521 00:27:48 Yes
4 Linda Loft - PA 6085-IF19-GPC BB H 1 09:22:52.50 167.819 00:28:51 Yes
5 Genesis Syndicate Loft - AZ 0737-AU19-GENS BBSP H 1 09:26:16.70 162.544 00:32:15 Yes
6 Elton Dinga - TX 16132-AU19-AA Hebberecht x Schaerlaecke BC H 1 09:30:40.60 156.199 00:36:39 Yes
7 Kolvenbag & Son - PA 1319-IF19-KOLV BB H 1 09:34:31.20 151.047 00:40:30 Yes
8 Irishsyndicatelofts - AZ 0710-IF19-IRIS BC H 1 09:36:37.00 148.377 00:42:36 Yes
9 Jed Loft - LA 0903-AU19-JED High Class BB H 1 10:08:43.10 116.774 01:14:42 Yes
9 Notch-Cutter/Karges/Silvio - TX 0030-AU19-USA 2 Timothy 4:7 BBWF H 1 10:08:43.10 116.774 01:14:42 Yes
11 Chen Loft - PA 0674-IF19-LU 1742/ TVC1562 BB H 1 10:09:00.50 116.550 01:14:59 Yes
12 Fl/Nc Connection - FL 9523-AU19-CV RC 0 1 10:09:21.20 116.284 01:15:20 Yes
13 Country Home Aviary - NC 9106-AU19-CV Yellow 9106 BC C 1 10:12:10.30 114.158 01:18:09 Yes
14 Dave Conover - PA 9069-IF19-DVC BB H 1 10:12:31.50 113.897 01:18:30 Yes
15 De La O/Sino/Baro - CA 9012-AU19-COOK DC H 1 10:13:03.50 113.506 01:19:02 Yes
16 Dave Conover - PA 9075-IF19-DVC BB H 2 10:15:29.40 111.753 01:21:28 Yes
17 Irishsyndicatelofts - AZ 0498-IF19-IRIS BBSP H 2 10:16:59.80 110.694 01:22:59 Yes
18 Q-Ba Family Loft - TX 0839-AU19-SANZ “Meteor-De46 Blood 839 BC 0 1 10:35:14.40 99.300 01:41:13 Yes
19 Dan & Greg Coury - AZ 0324-AU19-AONE frgttn sister+6065375 BBWF H 1 10:35:40.70 99.055 01:41:39 Yes
20 Abilene Loft - OH 1215-AU19-MVS SLCK H 1 10:36:08.40 98.799 01:42:07 Yes
21 Dan & Greg Coury - AZ 0335-AU19-AONE lmge/bmb.oldbyjewel/2206 BCWF H 2 10:36:12.30 98.763 01:42:11 Yes
22 Da-Dong - WI 1613-AU19-RAC 858-762 BB H 1 10:36:15.90 98.729 01:42:15 Yes
23 Double J Racing Loft - OH 0004-AU19-POUS BB H 1 10:36:17.00 98.719 01:42:16 Yes
24 Irishsyndicatelofts - AZ 0500-IF19-IRIS SILV H 3 10:36:17.60 98.714 01:42:16 Yes
25 Dan & Greg Coury - AZ 13930-AU19-JEDD DC H 3 10:36:18.30 98.707 01:42:17 Yes
26 Andy Owen - GA 1051-AU19-CGA BBPW H 1 10:36:19.00 98.701 01:42:18 Yes
27 Shi Loft - PA 7033-IF19-ERIE BC H 1 10:36:19.40 98.697 01:42:18 Yes
27 Shi Loft - PA 7023-IF19-ERIE BB H 2 10:36:19.40 98.697 01:42:18 Yes
29 M D C Loft - OR 1068-AU19-MDC DC H 1 10:36:20.10 98.691 01:42:19 Yes
30 Abilene Loft - OH 0834-AU19-NSC BB H 2 10:36:20.50 98.687 01:42:19 Yes
31 Do Drop In Loft - NC 0042-IF19-TRC Freak SLWF H 1 10:36:21.20 98.681 01:42:20 Yes
32 Smoke And Fire - TX 2401-AU19-TEXS BB H 1 10:36:21.80 98.675 01:42:20 Yes
33 Rodney Morris - ON 0104-CU19-KING BC H 1 10:36:29.50 98.604 01:42:28 Yes
34 Mike Hines - SD 9168-AU19-GPF BB H 1 10:36:30.00 98.599 01:42:29 Yes
34 Bill Hermann - MO 1216-AU19-AA BB H 1 10:36:30.00 98.599 01:42:29 Yes
36 Crazy Als Lofts - CO 5610-AU19-CRAZ BCPD H 1 10:36:31.00 98.590 01:42:30 Yes
37 King Conch Loft - ON 0119-CU19-KING BC H 1 10:36:31.70 98.584 01:42:30 Yes
38 Columba Loft - GA 9113-AU19-LYCH 4586 X 7140 BC H 1 10:36:32.00 98.581 01:42:31 Yes
39 Do Drop In Loft - NC 0040-IF19-TRC Payday BB H 2 10:36:32.40 98.577 01:42:31 Yes
40 Genesis Syndicate Loft - AZ 0738-AU19-GENS BBSP H 2 10:36:32.90 98.573 01:42:32 Yes
41 Wolf Den & Family Loft - IL 0016-AU19-FAM BB H 1 10:36:33.40 98.568 01:42:32 Yes
42 Marengo Creek Farms - AL 3260-AU19-MCF BB H 1 10:36:33.70 98.565 01:42:32 Yes
43 Da-Dong - WI 1611-AU19-RAC 836-836 WHGZ H 2 10:36:34.10 98.562 01:42:33 Yes
43 M D C Loft - OR 1066-AU19-MDC DC H 2 10:36:34.10 98.562 01:42:33 Yes
45 Jed Loft - LA 0939-AU19-JED Double Cross BB H 2 10:36:34.60 98.557 01:42:33 Yes
46 Sheriff & Fabian - PR 3372-IF19-UCPR Lou 46 BC H 1 10:36:35.10 98.553 01:42:34 Yes
47 Thunder Birds/Rodriguez Breeding Loft - TX 19052-AU19-WIN Puss In Boots! BC H 1 10:36:35.70 98.547 01:42:34 Yes
48 Marengo Creek Farms - AL 3402-AU19-MCF BB H 2 10:36:36.20 98.542 01:42:35 Yes
48 Cloux Loft - CO 9734-AU19-FH BB H 1 10:36:36.20 98.542 01:42:35 Yes
50 Si Se Puede Loft - TX 1915-AU19-SISE BMW-1 BBSP H 1 10:36:36.90 98.536 01:42:36 Yes
51 Kastle Loft - KY 1929-AU19-KASL Kiss Me BB H 1 10:36:37.40 98.531 01:42:36 Yes
51 Jed Loft - LA 0916-AU19-JED Good Deal BB H 3 10:36:37.40 98.531 01:42:36 Yes
53 Richard Hobson - DE 1812-IF19-LPC BB H 1 10:36:38.20 98.524 01:42:37 Yes
54 Wingsnwindloft - NY 9142-AU19-BISN " BONTE 42 " BBWF H 1 10:36:38.70 98.519 01:42:37 Yes
55 J & M Partridge Loft - CA 1712-AU19-PASO BC 0 1 10:36:39.20 98.515 01:42:38 Yes
56 Cloux Loft - CO 9718-AU19-FH BBWF H 2 10:36:39.30 98.514 01:42:38 Yes
57 Walters Loft - NJ 27506-AU19-ARPU DC H 1 10:36:40.00 98.507 01:42:39 Yes
57 Wingsnwindloft - NY 9129-AU19-BISN " DEEP BLUE " BBPD H 2 10:36:40.00 98.507 01:42:39 Yes
57 Tim Byers - OH 9119-AU19-BUCK RC H 2 10:36:40.00 98.507 01:42:39 Yes
60 T C R Loft - NC 15405-AU19-AA BB H 1 10:36:40.50 98.503 01:42:39 Yes
61 Crescendo Loft - NM 4730-AU19-VITA BB H 1 10:36:40.60 98.502 01:42:39 Yes
62 Kolvenbag & Son - PA 1328-IF19-KOLV DC H 2 10:36:41.10 98.497 01:42:40 Yes
62 Los Cubanitos Loft 2 - GA 0106-AU19-JEDD BB H 1 10:36:41.10 98.497 01:42:40 Yes
62 Rampage Racing - TX 15737-AU19-AA BB H 1 10:36:41.10 98.497 01:42:40 Yes
65 Baldwin & Tilson - NC 9236-AU19-TENT 1066-52 BC H 1 10:36:41.60 98.493 01:42:40 Yes
66 Salvicon - AZ 0420-AU19-RBPC BBPW H 1 10:36:41.80 98.491 01:42:40 Yes
67 Era Loft - NY 0620-AU19-BUF BC H 2 10:36:42.30 98.486 01:42:41 Yes
68 Q-Ba Family Loft - TX 0840-AU19-SANZ “Meteor-De46 Blood 840 BCWF 0 2 10:36:42.40 98.485 01:42:41 Yes
69 Thunder Birds/Rodriguez Breeding Loft - TX 19069-AU19-WIN H-Town Strike! BB H 2 10:36:43.30 98.477 01:42:42 Yes
69 Chen Loft - PA 0099-AU19-CHEN 1709/1720 BC H 2 10:36:43.30 98.477 01:42:42 Yes
71 Kui's Loft - NY 3007-AU19-JEDD BB H 1 10:36:43.90 98.472 01:42:43 Yes
72 Elton Dinga - TX 16135-AU19-AA Gust Jansen 24235 x 003 BC H 2 10:36:44.40 98.467 01:42:43 Yes
72 Iditarod Loft - MT 17267-AU19-AA BB H 1 10:36:44.40 98.467 01:42:43 Yes
74 Goshentown Lofts - TN 7640-AU19-NASH BB H 1 10:36:45.90 98.453 01:42:45 Yes
74 Sanborn Loft - OH 0501-AU19-IHC BB H 1 10:36:45.90 98.453 01:42:45 Yes
76 Elton Dinga - TX 16149-AU19-AA Victor 393 x Costello 210 BC H 3 10:36:46.40 98.449 01:42:45 Yes
77 Milo’s Loft - OK 22932-AU19-ARPU Casaert/sablon BB H 1 10:36:47.00 98.443 01:42:46 Yes
78 Cloux Loft - CO 9733-AU19-FH OPAL H 3 10:36:47.50 98.439 01:42:46 Yes
79 Greek Connection - SC 1218-AU19-GREK 1153xGR BCWF H 1 10:36:48.00 98.434 01:42:47 Yes
80 Cross Creek Loft Of Nc - NC 9505-AU19-MAC DC H 1 10:36:48.50 98.429 01:42:47 Yes
80 De La O/Sino/Baro - CA 9073-AU19-COOK DC H 2 10:36:48.50 98.429 01:42:47 Yes
82 Wareagle Loft - AL 0549-AU19-WEL BB H 1 10:36:49.00 98.425 01:42:48 Yes
82 Gold Country Challenge - CA 0260-AU19-HANG BBPW H 1 10:36:49.00 98.425 01:42:48 Yes
84 Youngblood Loft - UT 0335-AU19-UCA #1 Splash BBWF H 1 10:36:49.10 98.424 01:42:48 Yes
85 Hale Nūnū - VA 0004-IF19-NUNU BB H 1 10:36:49.60 98.419 01:42:48 Yes
86 Bill Hermann - MO 1215-AU19-AA BB H 2 10:36:50.40 98.412 01:42:49 Yes
87 Emc Loft - NC 60550-IF19-E SILV H 1 10:36:50.90 98.407 01:42:50 Yes
88 Country Home Aviary - NC 9126-AU19-CV Green 9126 BBWF C 2 10:36:51.30 98.404 01:42:50 Yes
88 De La O/Sino/Baro - CA 9006-AU19-COOK DCPD H 3 10:36:51.30 98.404 01:42:50 Yes
90 Genesis Syndicate Loft - AZ 0746-AU19-GENS BB H 3 10:36:51.90 98.398 01:42:51 Yes
90 K T Loft - IN 0419-AU19-KTLF BB H 1 10:36:51.90 98.398 01:42:51 Yes
92 John Fukumoto - HI 0733-AU19-HAWN BBWF H 1 10:36:52.40 98.394 01:42:51 Yes
93 J & M Partridge Loft - CA 1617-AU19-PASO MELY H 2 10:36:52.90 98.389 01:42:52 Yes
93 Bushmaster & Nieves Loft - PR 4021-AU19-ARPU Te mataste tu mismo BBPW H 1 10:36:52.90 98.389 01:42:52 Yes
95 Goldstar & Angel Loft - IL 6931-AU19-STAR Mountain Climber BC C 1 10:36:53.40 98.384 01:42:52 Yes
95 Bruce Daehn - FL 0115-AU19-NWFI BB H 1 10:36:53.50 98.384 01:42:52 Yes
95 Los Cubanitos Loft 2 - GA 0116-AU19-JEDD BC H 2 10:36:53.50 98.384 01:42:52 Yes
98 Abilene Loft - OH 1220-AU19-MVS BB H 3 10:36:53.80 98.381 01:42:52 Yes
99 Iditarod Loft - MT 17210-AU19-AA BB H 2 10:36:54.20 98.377 01:42:53 Yes
100 Era Loft - NY 0625-AU19-BUF BC H 3 10:36:54.30 98.376 01:42:53 Yes

There are 515 bird records

Note: These Race Results are unofficial and subject to change until verified by the Race Committee and declared final.